x

Prince Edward Pt (45135) Wave Buoy

1:00am - Wed 26th Jul 2017 All times are CDT. -5 hours from GMT.

  • Sig Wave height 0.3ft
  • Peak Period 2s
  • Wind
    2mph, 2mph gusts
  • Sea Temp 69°f
  • Air Temp 67°f
  • Sea Pressure 1022.8mb
  • Prince Edward Pt
  • Prince Edward Pt

More Historic Weather Station data

Upgrade to MSW Pro to gain access to the past 30 days of data for over 8000 Wavebouys and Weather Stations around the globe.

Join Pro

Comparision Forecast

View Surf forecast
   
Wed 07/26 1:00am 0.3ft 2s 2 2 mph 1022.8mb 69f 67f
12:00am 0.3ft 2s  -  2 mph 1023.3mb 69f 67f
Tue 07/25 11:00pm 0.7ft 3s 2 4 mph 1023.4mb 69f 68f
10:00pm 0.7ft 3s 4 7 mph 1023.5mb 69f 68f
9:00pm 0.7ft 3s 4 4 mph 1023.5mb 69f 68f
8:00pm 1ft 3s 4 4 mph 1023.2mb 70f 68f
7:00pm 1ft 4s 7 9 mph 1022.9mb 70f 68f
6:00pm 1.3ft 4s 7 9 mph 1022.3mb 70f 67f
5:00pm 2ft 4s 11 13 mph 1022.2mb 70f 67f
4:00pm 2.5ft 4s 13 18 mph 1021.9mb 70f 67f
3:00pm 2.5ft 4s 16 20 mph 1021.9mb 70f 66f
1:00pm 3.5ft 4s 18 25 mph 1021.5mb 70f 64f
12:00pm 3.5ft 4s 20 25 mph 1020.6mb 70f 63f
11:00am 3.5ft 5s 22 27 mph 1020.2mb 70f 63f
10:00am 3.5ft 4s 22 29 mph 1019.9mb 70f 62f
9:00am  -   -  22
mph
- - 62f
8:00am  -   -  22
mph
- - -
7:00am 2.5ft 3s 22 27 mph 1017.8mb 70f 61f
6:00am 2.5ft 4s 22 27 mph 1017.2mb 71f 61f
5:00am 2.5ft 4s 22 27 mph 1016.2mb 71f 61f
4:00am  -   -  22
mph
1015.5mb - 61f
3:00am  -   -  22
mph
1014.8mb - 61f
2:00am 1.6ft 3s 20 22 mph 1014.3mb 71f 61f
1:00am 1.3ft 3s 16 20 mph 1013.9mb 71f 62f
12:00am 1.3ft 3s 13 18 mph 1013.6mb 71f 62f
Mon 07/24 11:00pm 1.3ft 3s 13 18 mph 1012.8mb 71f 62f
10:00pm 1.3ft 3s 13 18 mph 1012.3mb 71f 63f
9:00pm 1ft 2s 13 16 mph 1011.7mb 71f 64f
8:00pm 1ft 3s 11 16 mph 1011.1mb 72f 65f
7:00pm 1ft 3s 9 11 mph 1010.3mb 72f 66f
6:00pm 1ft 4s 9 11 mph 1009.9mb 72f 67f
5:00pm 1ft 4s 9 13 mph 1009.2mb 72f 68f
4:00pm 1.3ft 4s 7 9 mph 1008.8mb 72f 68f
3:00pm 1.6ft 4s 7 9 mph 1008.6mb 72f 67f
2:00pm 2ft 4s 9 9 mph 1007.6mb 72f 68f
1:00pm 2ft 4s 11 13 mph 1007.5mb 72f 67f
12:00pm 2.5ft 4s 11 13 mph 1006.9mb 72f 67f
11:00am 3.5ft 5s 16 20 mph 1006.3mb 71f 68f
10:00am 3.5ft 5s 16 20 mph 1006.1mb 72f 69f
9:00am 4.5ft 5s 13 22 mph 1006mb 72f 69f
8:00am 4ft 5s 22 27 mph 1005.5mb 72f 69f
7:00am 4.5ft 5s 22 29 mph 1005.6mb 72f 69f
6:00am 5ft 5s 25 31 mph 1004.8mb 72f 70f
5:00am 3.5ft 4s 27 31 mph 1004.5mb 72f 71f
4:00am 2ft 4s 20 27 mph 1004.7mb 72f 72f
3:00am 2ft 4s 13 18 mph 1004.9mb 72f 72f
2:00am 2.5ft 4s 9 11 mph 1005.7mb 72f 73f
1:00am 3.5ft 4s 16 18 mph 1006.1mb 72f 70f
12:00am 3.5ft 4s 20 22 mph 1006.1mb 72f 69f
Sun 07/23 11:00pm 4ft 4s 20 25 mph 1006.6mb 72f 70f
10:00pm 4ft 4s 22 27 mph 1007.2mb 72f 71f
9:00pm  -   -  25
mph
- - -
8:00pm 3.5ft 4s 22 27 mph 1007.6mb 72f 72f
7:00pm 3.5ft 4s 22 27 mph 1007.5mb 72f 72f
5:00pm 3ft 4s 22 27 mph 1007.6mb 72f 72f
4:00pm 3ft 4s 20 27 mph 1007.9mb 72f 72f
3:00pm 3.5ft 4s 22 27 mph 1007.6mb 72f 72f
2:00pm 3ft 4s 25 27 mph 1008.4mb 72f 71f
12:00pm 2.5ft 4s 20 25 mph 1009.4mb 71f 70f
11:00am 2ft 4s 18 22 mph 1009.4mb 71f 70f
10:00am 1.6ft 3s 18 18 mph 1009.2mb 71f 70f
9:00am 1.3ft 3s 13 16 mph 1009.4mb 71f 70f
8:00am 1.6ft 3s 11 13 mph 1009.4mb 71f 71f
7:00am 2ft 3s 13 16 mph 1009.2mb 71f 70f
6:00am 1.6ft 3s 16 20 mph 1008.7mb 71f 71f
5:00am 1.3ft 3s 16 18 mph 1008.4mb 72f 71f
4:00am 1ft 2s 13 13 mph 1008.2mb 72f 71f
3:00am 0.7ft 2s 13 16 mph 1008mb 72f 71f
2:00am 0.3ft 2s 11 13 mph 1008.3mb 72f 71f
1:00am 0.3ft 4s 9 11 mph 1008.6mb 72f 71f
12:00am  -  4s 9 9 mph 1008.7mb 72f 71f
Sat 07/22 11:00pm 0.3ft 4s 4 4 mph 1009.2mb 72f 71f
10:00pm 0.3ft 4s 2 2 mph 1009.2mb 72f 71f
9:00pm  -  2s 2 4 mph 1009.6mb 72f 72f
8:00pm 0.3ft 2s 2 4 mph 1009.4mb 72f 72f
7:00pm 0.3ft 2s 4 4 mph 1009.1mb 72f 72f
6:00pm 0.3ft 2s 7 7 mph 1008.7mb 72f 72f
5:00pm 0.3ft 4s 4 4 mph 1009mb 72f 71f
4:00pm 0.3ft 2s 2 2 mph 1009.2mb 72f 72f
3:00pm 0.3ft 2s 4 4 mph 1010mb 72f 72f
2:00pm 0.3ft 2s 4 4 mph 1010.7mb 72f 72f
1:00pm 0.3ft 3s 4 7 mph 1011.1mb 72f 72f
12:00pm 0.3ft 2s 4 7 mph 1011.3mb 72f 71f
11:00am 0.3ft 3s 7 9 mph 1011.7mb 72f 71f
10:00am 0.7ft 3s 7 7 mph 1011.9mb 72f 70f
9:00am 0.7ft 4s 7 7 mph 1012.2mb 72f 70f
8:00am 0.7ft 3s 7 7 mph 1011.8mb 71f 70f